Terminal Aerodrome Forecast
Issued by NWS Twin Cities, MN

Home | Current Version | Previous Version | Text Only | Print | Product List | Glossary Off
Versions: 1 2 3 4 5 6 7 8 9 10 11 12 13 14 15 16 17 18

000
FTUS43 KMPX 310347 AAA
TAFSTC
TAF AMD
KSTC 310347Z 3104/3124 16005KT P6SM BKN025 BKN090
     FM310500 18005KT P6SM SCT025
     FM311000 34008KT P6SM OVC015
     FM312100 03007KT P6SM SCT015 BKN100=

USA.gov is the U.S. government's official web portal to all federal, state and local government web resources and services.